sensor_id;sensor_type;location;lat;lon;timestamp;temperature;humidity
4725;DHT22;2376;53.544;10.226;2022-09-13T00:01:07;17.80;99.90
4725;DHT22;2376;53.544;10.226;2022-09-13T00:03:34;17.90;99.90
4725;DHT22;2376;53.544;10.226;2022-09-13T00:06:07;17.80;99.90
4725;DHT22;2376;53.544;10.226;2022-09-13T00:08:34;17.80;99.90
4725;DHT22;2376;53.544;10.226;2022-09-13T00:11:00;17.80;99.90
4725;DHT22;2376;53.544;10.226;2022-09-13T00:13:27;17.80;99.90
4725;DHT22;2376;53.544;10.226;2022-09-13T00:15:55;17.70;99.90
4725;DHT22;2376;53.544;10.226;2022-09-13T00:18:23;17.70;99.90
4725;DHT22;2376;53.544;10.226;2022-09-13T00:20:49;17.70;99.90
4725;DHT22;2376;53.544;10.226;2022-09-13T00:23:16;17.70;99.90
4725;DHT22;2376;53.544;10.226;2022-09-13T00:25:42;17.80;99.90
4725;DHT22;2376;53.544;10.226;2022-09-13T00:28:09;17.70;99.90
4725;DHT22;2376;53.544;10.226;2022-09-13T00:30:36;17.70;99.90
4725;DHT22;2376;53.544;10.226;2022-09-13T00:33:04;17.70;99.90
4725;DHT22;2376;53.544;10.226;2022-09-13T00:35:31;17.70;99.90
4725;DHT22;2376;53.544;10.226;2022-09-13T00:37:58;17.70;99.90
4725;DHT22;2376;53.544;10.226;2022-09-13T00:40:25;17.70;99.90
4725;DHT22;2376;53.544;10.226;2022-09-13T00:42:54;17.60;99.90
4725;DHT22;2376;53.544;10.226;2022-09-13T00:45:21;17.60;99.90
4725;DHT22;2376;53.544;10.226;2022-09-13T00:47:51;17.70;99.90
4725;DHT22;2376;53.544;10.226;2022-09-13T00:50:24;17.70;99.90
4725;DHT22;2376;53.544;10.226;2022-09-13T00:52:59;17.70;99.90
4725;DHT22;2376;53.544;10.226;2022-09-13T00:55:29;17.70;99.90
4725;DHT22;2376;53.544;10.226;2022-09-13T00:58:00;17.70;99.90
4725;DHT22;2376;53.544;10.226;2022-09-13T01:00:28;17.70;99.90
4725;DHT22;2376;53.544;10.226;2022-09-13T01:02:57;17.60;99.90
4725;DHT22;2376;53.544;10.226;2022-09-13T01:05:29;17.60;99.90
4725;DHT22;2376;53.544;10.226;2022-09-13T01:07:57;17.60;99.90
4725;DHT22;2376;53.544;10.226;2022-09-13T01:10:24;17.50;99.90
4725;DHT22;2376;53.544;10.226;2022-09-13T01:12:55;17.50;99.90
4725;DHT22;2376;53.544;10.226;2022-09-13T01:15:22;17.50;99.90
4725;DHT22;2376;53.544;10.226;2022-09-13T01:17:52;17.50;99.90
4725;DHT22;2376;53.544;10.226;2022-09-13T01:20:21;17.50;99.90
4725;DHT22;2376;53.544;10.226;2022-09-13T01:23:15;17.50;99.90
4725;DHT22;2376;53.544;10.226;2022-09-13T01:26:11;17.50;99.90
4725;DHT22;2376;53.544;10.226;2022-09-13T01:31:43;17.40;99.90
4725;DHT22;2376;53.544;10.226;2022-09-13T01:34:20;17.40;99.90
4725;DHT22;2376;53.544;10.226;2022-09-13T01:37:01;17.30;99.90
4725;DHT22;2376;53.544;10.226;2022-09-13T01:39:41;17.30;99.90
4725;DHT22;2376;53.544;10.226;2022-09-13T01:42:21;17.30;99.90
4725;DHT22;2376;53.544;10.226;2022-09-13T01:45:02;17.30;99.90
4725;DHT22;2376;53.544;10.226;2022-09-13T01:47:34;17.30;99.90
4725;DHT22;2376;53.544;10.226;2022-09-13T01:50:14;17.30;99.90
4725;DHT22;2376;53.544;10.226;2022-09-13T01:52:49;17.20;99.90
4725;DHT22;2376;53.544;10.226;2022-09-13T01:55:24;17.20;99.90
4725;DHT22;2376;53.544;10.226;2022-09-13T01:58:00;17.20;99.90
4725;DHT22;2376;53.544;10.226;2022-09-13T02:00:34;17.10;99.90
4725;DHT22;2376;53.544;10.226;2022-09-13T02:03:05;17.10;99.90
4725;DHT22;2376;53.544;10.226;2022-09-13T02:05:38;17.10;99.90
4725;DHT22;2376;53.544;10.226;2022-09-13T02:08:09;17.10;99.90
4725;DHT22;2376;53.544;10.226;2022-09-13T02:10:40;17.10;99.90
4725;DHT22;2376;53.544;10.226;2022-09-13T02:13:10;17.10;99.90
4725;DHT22;2376;53.544;10.226;2022-09-13T02:15:42;17.10;99.90
4725;DHT22;2376;53.544;10.226;2022-09-13T02:18:15;17.10;99.90
4725;DHT22;2376;53.544;10.226;2022-09-13T02:20:45;17.10;99.90
4725;DHT22;2376;53.544;10.226;2022-09-13T02:23:16;17.20;99.90
4725;DHT22;2376;53.544;10.226;2022-09-13T02:25:45;17.10;99.90
4725;DHT22;2376;53.544;10.226;2022-09-13T02:28:19;17.10;99.90
4725;DHT22;2376;53.544;10.226;2022-09-13T02:30:50;17.10;99.90
4725;DHT22;2376;53.544;10.226;2022-09-13T02:33:23;17.10;99.90
4725;DHT22;2376;53.544;10.226;2022-09-13T02:35:56;17.10;99.90
4725;DHT22;2376;53.544;10.226;2022-09-13T02:38:29;17.00;99.90
4725;DHT22;2376;53.544;10.226;2022-09-13T02:41:00;17.00;99.90
4725;DHT22;2376;53.544;10.226;2022-09-13T02:43:34;17.00;99.90
4725;DHT22;2376;53.544;10.226;2022-09-13T02:46:12;17.00;99.90
4725;DHT22;2376;53.544;10.226;2022-09-13T02:48:49;17.00;99.90
4725;DHT22;2376;53.544;10.226;2022-09-13T02:51:24;17.00;99.90
4725;DHT22;2376;53.544;10.226;2022-09-13T02:54:03;17.00;99.90
4725;DHT22;2376;53.544;10.226;2022-09-13T02:56:35;17.00;99.90
4725;DHT22;2376;53.544;10.226;2022-09-13T02:59:08;17.10;99.90
4725;DHT22;2376;53.544;10.226;2022-09-13T03:01:39;17.10;99.90
4725;DHT22;2376;53.544;10.226;2022-09-13T03:04:08;17.00;99.90
4725;DHT22;2376;53.544;10.226;2022-09-13T03:06:37;17.00;99.90
4725;DHT22;2376;53.544;10.226;2022-09-13T03:09:04;16.90;99.90
4725;DHT22;2376;53.544;10.226;2022-09-13T03:11:45;17.00;99.90
4725;DHT22;2376;53.544;10.226;2022-09-13T03:14:26;17.00;99.90
4725;DHT22;2376;53.544;10.226;2022-09-13T03:17:09;17.00;99.90
4725;DHT22;2376;53.544;10.226;2022-09-13T03:20:00;17.00;99.90
4725;DHT22;2376;53.544;10.226;2022-09-13T03:22:44;17.00;99.90
4725;DHT22;2376;53.544;10.226;2022-09-13T03:25:18;16.90;99.90
4725;DHT22;2376;53.544;10.226;2022-09-13T03:27:52;16.90;99.90
4725;DHT22;2376;53.544;10.226;2022-09-13T03:30:21;16.90;99.90
4725;DHT22;2376;53.544;10.226;2022-09-13T03:32:50;16.90;99.90
4725;DHT22;2376;53.544;10.226;2022-09-13T03:35:24;16.90;99.90
4725;DHT22;2376;53.544;10.226;2022-09-13T03:37:58;16.90;99.90
4725;DHT22;2376;53.544;10.226;2022-09-13T03:40:34;16.90;99.90
4725;DHT22;2376;53.544;10.226;2022-09-13T03:43:09;16.90;99.90
4725;DHT22;2376;53.544;10.226;2022-09-13T03:45:39;16.90;99.90
4725;DHT22;2376;53.544;10.226;2022-09-13T03:48:08;16.90;99.90
4725;DHT22;2376;53.544;10.226;2022-09-13T03:50:38;16.90;99.90
4725;DHT22;2376;53.544;10.226;2022-09-13T03:53:09;16.90;99.90
4725;DHT22;2376;53.544;10.226;2022-09-13T03:55:39;16.80;99.90
4725;DHT22;2376;53.544;10.226;2022-09-13T03:58:07;16.80;99.90
4725;DHT22;2376;53.544;10.226;2022-09-13T04:00:34;16.90;99.90
4725;DHT22;2376;53.544;10.226;2022-09-13T04:03:01;16.80;99.90
4725;DHT22;2376;53.544;10.226;2022-09-13T04:05:28;16.90;99.90
4725;DHT22;2376;53.544;10.226;2022-09-13T04:07:56;16.80;99.90
4725;DHT22;2376;53.544;10.226;2022-09-13T04:10:23;16.80;99.90
4725;DHT22;2376;53.544;10.226;2022-09-13T04:12:50;16.80;99.90
4725;DHT22;2376;53.544;10.226;2022-09-13T04:15:16;16.80;99.90
4725;DHT22;2376;53.544;10.226;2022-09-13T04:17:43;16.80;99.90
4725;DHT22;2376;53.544;10.226;2022-09-13T04:20:10;16.80;99.90
4725;DHT22;2376;53.544;10.226;2022-09-13T04:22:36;16.80;99.90
4725;DHT22;2376;53.544;10.226;2022-09-13T04:25:05;16.80;99.90
4725;DHT22;2376;53.544;10.226;2022-09-13T04:27:32;16.80;99.90
4725;DHT22;2376;53.544;10.226;2022-09-13T04:30:00;16.80;99.90
4725;DHT22;2376;53.544;10.226;2022-09-13T04:32:27;16.80;99.90
4725;DHT22;2376;53.544;10.226;2022-09-13T04:34:54;16.80;99.90
4725;DHT22;2376;53.544;10.226;2022-09-13T04:37:21;16.80;99.90
4725;DHT22;2376;53.544;10.226;2022-09-13T04:39:48;16.80;99.90
4725;DHT22;2376;53.544;10.226;2022-09-13T04:42:16;16.80;99.90
4725;DHT22;2376;53.544;10.226;2022-09-13T04:44:44;16.80;99.90
4725;DHT22;2376;53.544;10.226;2022-09-13T04:47:10;16.80;99.90
4725;DHT22;2376;53.544;10.226;2022-09-13T04:49:37;16.80;99.90
4725;DHT22;2376;53.544;10.226;2022-09-13T04:52:04;16.80;99.90
4725;DHT22;2376;53.544;10.226;2022-09-13T04:54:31;16.80;99.90
4725;DHT22;2376;53.544;10.226;2022-09-13T04:56:57;16.80;99.90
4725;DHT22;2376;53.544;10.226;2022-09-13T04:59:25;16.80;99.90
4725;DHT22;2376;53.544;10.226;2022-09-13T05:01:52;16.70;99.90
4725;DHT22;2376;53.544;10.226;2022-09-13T05:04:19;16.80;99.90
4725;DHT22;2376;53.544;10.226;2022-09-13T05:06:46;16.70;99.90
4725;DHT22;2376;53.544;10.226;2022-09-13T05:09:14;16.70;99.90
4725;DHT22;2376;53.544;10.226;2022-09-13T05:11:41;16.70;99.90
4725;DHT22;2376;53.544;10.226;2022-09-13T05:14:09;16.80;99.90
4725;DHT22;2376;53.544;10.226;2022-09-13T05:16:37;16.80;99.90
4725;DHT22;2376;53.544;10.226;2022-09-13T05:19:04;16.80;99.90
4725;DHT22;2376;53.544;10.226;2022-09-13T05:21:30;16.80;99.90
4725;DHT22;2376;53.544;10.226;2022-09-13T05:23:57;16.80;99.90
4725;DHT22;2376;53.544;10.226;2022-09-13T05:26:27;16.80;99.90
4725;DHT22;2376;53.544;10.226;2022-09-13T05:28:56;16.80;99.90
4725;DHT22;2376;53.544;10.226;2022-09-13T05:31:24;16.80;99.90
4725;DHT22;2376;53.544;10.226;2022-09-13T05:33:55;16.80;99.90
4725;DHT22;2376;53.544;10.226;2022-09-13T05:36:23;16.80;99.90
4725;DHT22;2376;53.544;10.226;2022-09-13T05:38:51;16.90;99.90
4725;DHT22;2376;53.544;10.226;2022-09-13T05:41:17;16.80;99.90
4725;DHT22;2376;53.544;10.226;2022-09-13T05:43:44;16.80;99.90
4725;DHT22;2376;53.544;10.226;2022-09-13T05:46:13;16.80;99.90
4725;DHT22;2376;53.544;10.226;2022-09-13T05:48:40;16.80;99.90
4725;DHT22;2376;53.544;10.226;2022-09-13T05:51:09;16.80;99.90
4725;DHT22;2376;53.544;10.226;2022-09-13T05:53:37;16.80;99.90
4725;DHT22;2376;53.544;10.226;2022-09-13T05:56:05;16.80;99.90
4725;DHT22;2376;53.544;10.226;2022-09-13T05:58:33;16.90;99.90
4725;DHT22;2376;53.544;10.226;2022-09-13T06:01:00;16.90;99.90
4725;DHT22;2376;53.544;10.226;2022-09-13T06:03:27;16.90;99.90
4725;DHT22;2376;53.544;10.226;2022-09-13T06:05:54;17.00;99.90
4725;DHT22;2376;53.544;10.226;2022-09-13T06:08:23;17.00;99.90
4725;DHT22;2376;53.544;10.226;2022-09-13T06:10:55;17.10;99.90
4725;DHT22;2376;53.544;10.226;2022-09-13T06:13:22;17.10;99.90
4725;DHT22;2376;53.544;10.226;2022-09-13T06:15:49;17.10;99.90
4725;DHT22;2376;53.544;10.226;2022-09-13T06:18:15;17.10;99.90
4725;DHT22;2376;53.544;10.226;2022-09-13T06:20:42;17.10;99.90
4725;DHT22;2376;53.544;10.226;2022-09-13T06:23:09;17.20;99.90
4725;DHT22;2376;53.544;10.226;2022-09-13T06:25:37;17.10;99.90
4725;DHT22;2376;53.544;10.226;2022-09-13T06:28:04;17.20;99.90
4725;DHT22;2376;53.544;10.226;2022-09-13T06:30:30;17.10;99.90
4725;DHT22;2376;53.544;10.226;2022-09-13T06:32:57;17.10;99.90
4725;DHT22;2376;53.544;10.226;2022-09-13T06:35:25;17.10;99.90
4725;DHT22;2376;53.544;10.226;2022-09-13T06:37:54;17.10;99.90
4725;DHT22;2376;53.544;10.226;2022-09-13T06:40:22;17.20;99.90
4725;DHT22;2376;53.544;10.226;2022-09-13T06:42:50;17.30;99.90
4725;DHT22;2376;53.544;10.226;2022-09-13T06:45:17;17.30;99.90
4725;DHT22;2376;53.544;10.226;2022-09-13T06:47:44;17.30;99.90
4725;DHT22;2376;53.544;10.226;2022-09-13T06:50:11;17.30;99.90
4725;DHT22;2376;53.544;10.226;2022-09-13T06:52:38;17.40;99.90
4725;DHT22;2376;53.544;10.226;2022-09-13T06:55:05;17.40;99.90
4725;DHT22;2376;53.544;10.226;2022-09-13T06:57:32;17.50;99.90
4725;DHT22;2376;53.544;10.226;2022-09-13T07:00:00;17.50;99.90
4725;DHT22;2376;53.544;10.226;2022-09-13T07:02:27;17.50;99.90
4725;DHT22;2376;53.544;10.226;2022-09-13T07:04:54;17.50;99.90
4725;DHT22;2376;53.544;10.226;2022-09-13T07:07:21;17.60;99.90
4725;DHT22;2376;53.544;10.226;2022-09-13T07:09:47;17.60;99.90
4725;DHT22;2376;53.544;10.226;2022-09-13T07:12:14;17.70;99.90
4725;DHT22;2376;53.544;10.226;2022-09-13T07:14:41;17.70;99.90
4725;DHT22;2376;53.544;10.226;2022-09-13T07:17:09;17.70;99.90
4725;DHT22;2376;53.544;10.226;2022-09-13T07:19:36;17.80;99.90
4725;DHT22;2376;53.544;10.226;2022-09-13T07:22:02;17.80;99.90
4725;DHT22;2376;53.544;10.226;2022-09-13T07:24:30;17.90;99.90
4725;DHT22;2376;53.544;10.226;2022-09-13T07:26:56;17.90;99.90
4725;DHT22;2376;53.544;10.226;2022-09-13T07:29:23;18.00;99.90
4725;DHT22;2376;53.544;10.226;2022-09-13T07:31:51;17.90;99.90
4725;DHT22;2376;53.544;10.226;2022-09-13T07:34:21;18.00;99.90
4725;DHT22;2376;53.544;10.226;2022-09-13T07:36:49;18.00;99.90
4725;DHT22;2376;53.544;10.226;2022-09-13T07:39:17;18.10;99.90
4725;DHT22;2376;53.544;10.226;2022-09-13T07:41:44;18.20;99.90
4725;DHT22;2376;53.544;10.226;2022-09-13T07:44:12;18.20;99.90
4725;DHT22;2376;53.544;10.226;2022-09-13T07:46:39;18.20;99.90
4725;DHT22;2376;53.544;10.226;2022-09-13T07:49:09;18.20;99.90
4725;DHT22;2376;53.544;10.226;2022-09-13T07:51:38;18.30;99.90
4725;DHT22;2376;53.544;10.226;2022-09-13T07:54:10;18.30;99.90
4725;DHT22;2376;53.544;10.226;2022-09-13T07:56:38;18.30;99.90
4725;DHT22;2376;53.544;10.226;2022-09-13T07:59:06;18.20;99.90
4725;DHT22;2376;53.544;10.226;2022-09-13T08:01:35;18.30;99.90
4725;DHT22;2376;53.544;10.226;2022-09-13T08:04:04;18.30;99.90
4725;DHT22;2376;53.544;10.226;2022-09-13T08:06:33;18.40;99.90
4725;DHT22;2376;53.544;10.226;2022-09-13T08:09:01;18.40;99.90
4725;DHT22;2376;53.544;10.226;2022-09-13T08:11:30;18.40;99.90
4725;DHT22;2376;53.544;10.226;2022-09-13T08:13:57;18.60;99.90
4725;DHT22;2376;53.544;10.226;2022-09-13T08:16:25;18.70;99.90
4725;DHT22;2376;53.544;10.226;2022-09-13T08:18:53;18.60;99.90
4725;DHT22;2376;53.544;10.226;2022-09-13T08:21:21;18.50;99.90
4725;DHT22;2376;53.544;10.226;2022-09-13T08:23:49;18.50;99.90
4725;DHT22;2376;53.544;10.226;2022-09-13T08:26:19;18.60;99.90
4725;DHT22;2376;53.544;10.226;2022-09-13T08:28:46;18.60;99.90
4725;DHT22;2376;53.544;10.226;2022-09-13T08:31:15;18.70;99.90
4725;DHT22;2376;53.544;10.226;2022-09-13T08:33:45;18.70;99.90
4725;DHT22;2376;53.544;10.226;2022-09-13T08:36:13;18.80;99.90
4725;DHT22;2376;53.544;10.226;2022-09-13T08:38:44;18.80;99.90
4725;DHT22;2376;53.544;10.226;2022-09-13T08:41:29;18.80;99.90
4725;DHT22;2376;53.544;10.226;2022-09-13T08:44:02;18.70;99.90
4725;DHT22;2376;53.544;10.226;2022-09-13T08:46:33;18.80;99.90
4725;DHT22;2376;53.544;10.226;2022-09-13T08:49:04;18.80;99.90
4725;DHT22;2376;53.544;10.226;2022-09-13T08:51:36;18.80;99.90
4725;DHT22;2376;53.544;10.226;2022-09-13T08:54:13;18.90;99.90
4725;DHT22;2376;53.544;10.226;2022-09-13T08:56:49;18.70;99.90
4725;DHT22;2376;53.544;10.226;2022-09-13T08:59:32;18.80;99.90
4725;DHT22;2376;53.544;10.226;2022-09-13T09:02:25;18.90;99.90
4725;DHT22;2376;53.544;10.226;2022-09-13T09:05:02;18.80;99.90
4725;DHT22;2376;53.544;10.226;2022-09-13T09:07:33;18.70;99.90
4725;DHT22;2376;53.544;10.226;2022-09-13T09:10:06;18.60;99.90
4725;DHT22;2376;53.544;10.226;2022-09-13T09:12:43;18.60;99.90
4725;DHT22;2376;53.544;10.226;2022-09-13T09:15:19;18.80;99.90
4725;DHT22;2376;53.544;10.226;2022-09-13T09:17:54;18.90;99.90
4725;DHT22;2376;53.544;10.226;2022-09-13T09:20:27;18.90;99.90
4725;DHT22;2376;53.544;10.226;2022-09-13T09:23:00;19.00;99.90
4725;DHT22;2376;53.544;10.226;2022-09-13T09:25:28;19.00;99.90
4725;DHT22;2376;53.544;10.226;2022-09-13T09:27:57;19.00;99.90
4725;DHT22;2376;53.544;10.226;2022-09-13T09:30:32;18.90;99.90
4725;DHT22;2376;53.544;10.226;2022-09-13T09:33:14;18.90;99.90
4725;DHT22;2376;53.544;10.226;2022-09-13T09:35:53;18.90;99.90
4725;DHT22;2376;53.544;10.226;2022-09-13T09:38:35;18.90;99.90
4725;DHT22;2376;53.544;10.226;2022-09-13T09:41:08;19.00;99.90
4725;DHT22;2376;53.544;10.226;2022-09-13T09:43:43;19.00;99.90
4725;DHT22;2376;53.544;10.226;2022-09-13T09:46:11;19.10;99.90
4725;DHT22;2376;53.544;10.226;2022-09-13T09:48:43;19.20;99.90
4725;DHT22;2376;53.544;10.226;2022-09-13T09:51:12;19.30;99.90
4725;DHT22;2376;53.544;10.226;2022-09-13T09:53:43;19.30;99.90
4725;DHT22;2376;53.544;10.226;2022-09-13T09:56:19;19.40;99.90
4725;DHT22;2376;53.544;10.226;2022-09-13T09:58:48;19.40;99.90
4725;DHT22;2376;53.544;10.226;2022-09-13T10:01:20;19.40;99.90
4725;DHT22;2376;53.544;10.226;2022-09-13T10:06:34;19.70;99.90
4725;DHT22;2376;53.544;10.226;2022-09-13T10:09:03;19.80;99.90
4725;DHT22;2376;53.544;10.226;2022-09-13T10:11:38;19.90;99.90
4725;DHT22;2376;53.544;10.226;2022-09-13T10:14:26;20.00;99.90
4725;DHT22;2376;53.544;10.226;2022-09-13T10:17:02;20.20;99.90
4725;DHT22;2376;53.544;10.226;2022-09-13T10:19:30;20.20;99.90
4725;DHT22;2376;53.544;10.226;2022-09-13T10:22:02;20.30;99.90
4725;DHT22;2376;53.544;10.226;2022-09-13T10:24:30;20.30;99.90
4725;DHT22;2376;53.544;10.226;2022-09-13T10:26:58;20.20;99.90
4725;DHT22;2376;53.544;10.226;2022-09-13T10:29:27;20.40;99.90
4725;DHT22;2376;53.544;10.226;2022-09-13T10:31:54;20.40;99.90
4725;DHT22;2376;53.544;10.226;2022-09-13T10:34:25;20.40;99.90
4725;DHT22;2376;53.544;10.226;2022-09-13T10:36:55;20.70;99.90
4725;DHT22;2376;53.544;10.226;2022-09-13T10:39:24;20.70;99.90
4725;DHT22;2376;53.544;10.226;2022-09-13T10:41:54;20.70;99.90
4725;DHT22;2376;53.544;10.226;2022-09-13T10:44:29;20.70;99.90
4725;DHT22;2376;53.544;10.226;2022-09-13T10:46:59;20.70;99.90
4725;DHT22;2376;53.544;10.226;2022-09-13T10:49:38;20.70;99.90
4725;DHT22;2376;53.544;10.226;2022-09-13T10:52:27;20.80;99.90
4725;DHT22;2376;53.544;10.226;2022-09-13T10:54:57;20.90;99.90
4725;DHT22;2376;53.544;10.226;2022-09-13T10:57:41;21.00;99.90
4725;DHT22;2376;53.544;10.226;2022-09-13T11:00:11;21.00;99.90
4725;DHT22;2376;53.544;10.226;2022-09-13T11:03:02;21.10;99.90
4725;DHT22;2376;53.544;10.226;2022-09-13T11:05:39;21.10;99.90
4725;DHT22;2376;53.544;10.226;2022-09-13T11:08:28;21.10;99.90
4725;DHT22;2376;53.544;10.226;2022-09-13T11:11:08;21.10;99.90
4725;DHT22;2376;53.544;10.226;2022-09-13T11:13:49;21.30;99.90
4725;DHT22;2376;53.544;10.226;2022-09-13T11:16:32;21.50;99.90
4725;DHT22;2376;53.544;10.226;2022-09-13T11:22:08;21.60;99.10
4725;DHT22;2376;53.544;10.226;2022-09-13T11:24:52;21.60;96.80
4725;DHT22;2376;53.544;10.226;2022-09-13T11:27:31;21.60;96.10
4725;DHT22;2376;53.544;10.226;2022-09-13T11:30:08;21.70;95.60
4725;DHT22;2376;53.544;10.226;2022-09-13T11:32:48;21.70;95.10
4725;DHT22;2376;53.544;10.226;2022-09-13T11:35:35;21.70;94.00
4725;DHT22;2376;53.544;10.226;2022-09-13T11:41:03;21.80;97.10
4725;DHT22;2376;53.544;10.226;2022-09-13T11:43:49;22.10;96.10
4725;DHT22;2376;53.544;10.226;2022-09-13T11:46:23;22.10;96.60
4725;DHT22;2376;53.544;10.226;2022-09-13T11:52:05;22.30;97.10
4725;DHT22;2376;53.544;10.226;2022-09-13T11:54:43;22.40;95.00
4725;DHT22;2376;53.544;10.226;2022-09-13T11:57:24;22.40;94.50
4725;DHT22;2376;53.544;10.226;2022-09-13T11:59:54;22.30;94.40
4725;DHT22;2376;53.544;10.226;2022-09-13T12:02:26;22.40;94.60
4725;DHT22;2376;53.544;10.226;2022-09-13T12:04:59;22.50;94.20
4725;DHT22;2376;53.544;10.226;2022-09-13T12:07:35;22.40;91.50
4725;DHT22;2376;53.544;10.226;2022-09-13T12:10:06;22.30;90.30
4725;DHT22;2376;53.544;10.226;2022-09-13T12:12:39;22.40;90.40
4725;DHT22;2376;53.544;10.226;2022-09-13T12:15:14;22.50;90.30
4725;DHT22;2376;53.544;10.226;2022-09-13T12:17:45;22.50;90.80
4725;DHT22;2376;53.544;10.226;2022-09-13T12:20:19;22.60;90.30
4725;DHT22;2376;53.544;10.226;2022-09-13T12:22:52;22.60;90.30
4725;DHT22;2376;53.544;10.226;2022-09-13T12:25:22;22.50;88.70
4725;DHT22;2376;53.544;10.226;2022-09-13T12:27:55;22.50;89.30
4725;DHT22;2376;53.544;10.226;2022-09-13T12:30:23;22.60;89.80
4725;DHT22;2376;53.544;10.226;2022-09-13T12:32:52;22.50;88.80
4725;DHT22;2376;53.544;10.226;2022-09-13T12:35:24;22.50;89.00
4725;DHT22;2376;53.544;10.226;2022-09-13T12:38:27;22.50;88.80
4725;DHT22;2376;53.544;10.226;2022-09-13T12:41:13;22.50;89.50
4725;DHT22;2376;53.544;10.226;2022-09-13T12:43:58;22.40;89.00
4725;DHT22;2376;53.544;10.226;2022-09-13T12:47:11;22.50;88.30
4725;DHT22;2376;53.544;10.226;2022-09-13T12:50:11;22.50;88.10
4725;DHT22;2376;53.544;10.226;2022-09-13T12:52:44;22.50;88.50
4725;DHT22;2376;53.544;10.226;2022-09-13T12:55:29;22.40;89.80
4725;DHT22;2376;53.544;10.226;2022-09-13T12:58:14;22.50;90.20
4725;DHT22;2376;53.544;10.226;2022-09-13T13:00:47;22.50;89.10
4725;DHT22;2376;53.544;10.226;2022-09-13T13:03:29;22.30;89.80
4725;DHT22;2376;53.544;10.226;2022-09-13T13:06:07;22.10;90.10
4725;DHT22;2376;53.544;10.226;2022-09-13T13:08:34;22.10;91.50
4725;DHT22;2376;53.544;10.226;2022-09-13T13:11:05;22.10;92.40
4725;DHT22;2376;53.544;10.226;2022-09-13T13:13:35;22.10;92.10
4725;DHT22;2376;53.544;10.226;2022-09-13T13:16:19;22.10;92.90
4725;DHT22;2376;53.544;10.226;2022-09-13T13:18:47;22.00;93.60
4725;DHT22;2376;53.544;10.226;2022-09-13T13:21:31;22.00;94.30
4725;DHT22;2376;53.544;10.226;2022-09-13T13:24:41;22.10;95.40
4725;DHT22;2376;53.544;10.226;2022-09-13T13:27:37;21.80;96.00
4725;DHT22;2376;53.544;10.226;2022-09-13T13:30:41;21.70;97.50
4725;DHT22;2376;53.544;10.226;2022-09-13T13:33:18;21.80;98.50
4725;DHT22;2376;53.544;10.226;2022-09-13T13:35:46;21.90;99.40
4725;DHT22;2376;53.544;10.226;2022-09-13T13:38:14;21.90;98.60
4725;DHT22;2376;53.544;10.226;2022-09-13T13:40:41;21.80;98.60
4725;DHT22;2376;53.544;10.226;2022-09-13T13:43:29;21.70;98.40
4725;DHT22;2376;53.544;10.226;2022-09-13T13:45:58;21.70;98.80
4725;DHT22;2376;53.544;10.226;2022-09-13T13:48:46;21.60;99.00
4725;DHT22;2376;53.544;10.226;2022-09-13T13:51:21;21.60;98.70
4725;DHT22;2376;53.544;10.226;2022-09-13T13:53:52;21.60;99.10
4725;DHT22;2376;53.544;10.226;2022-09-13T13:56:28;21.50;98.20
4725;DHT22;2376;53.544;10.226;2022-09-13T13:58:59;21.50;99.50
4725;DHT22;2376;53.544;10.226;2022-09-13T14:01:29;21.40;99.90
4725;DHT22;2376;53.544;10.226;2022-09-13T14:04:30;21.30;99.90
4725;DHT22;2376;53.544;10.226;2022-09-13T14:07:14;21.30;99.90
4725;DHT22;2376;53.544;10.226;2022-09-13T14:09:50;21.20;99.90
4725;DHT22;2376;53.544;10.226;2022-09-13T14:12:28;21.20;99.90
4725;DHT22;2376;53.544;10.226;2022-09-13T14:15:23;21.10;99.90
4725;DHT22;2376;53.544;10.226;2022-09-13T14:18:20;21.00;99.90
4725;DHT22;2376;53.544;10.226;2022-09-13T14:21:00;20.90;99.90
4725;DHT22;2376;53.544;10.226;2022-09-13T14:23:28;20.90;99.90
4725;DHT22;2376;53.544;10.226;2022-09-13T14:25:56;21.00;99.90
4725;DHT22;2376;53.544;10.226;2022-09-13T14:28:24;21.00;99.90
4725;DHT22;2376;53.544;10.226;2022-09-13T14:30:54;21.00;99.90
4725;DHT22;2376;53.544;10.226;2022-09-13T14:33:26;20.90;99.90
4725;DHT22;2376;53.544;10.226;2022-09-13T14:35:59;20.80;99.90
4725;DHT22;2376;53.544;10.226;2022-09-13T14:38:28;20.80;99.90
4725;DHT22;2376;53.544;10.226;2022-09-13T14:41:00;20.80;99.90
4725;DHT22;2376;53.544;10.226;2022-09-13T14:43:28;20.80;99.90
4725;DHT22;2376;53.544;10.226;2022-09-13T14:46:01;20.80;99.90
4725;DHT22;2376;53.544;10.226;2022-09-13T14:48:33;20.90;99.90
4725;DHT22;2376;53.544;10.226;2022-09-13T14:51:12;21.00;99.90
4725;DHT22;2376;53.544;10.226;2022-09-13T14:53:40;21.00;99.90
4725;DHT22;2376;53.544;10.226;2022-09-13T14:56:13;21.00;99.90
4725;DHT22;2376;53.544;10.226;2022-09-13T14:58:43;20.70;99.90
4725;DHT22;2376;53.544;10.226;2022-09-13T15:01:13;20.70;99.90
4725;DHT22;2376;53.544;10.226;2022-09-13T15:03:41;20.80;99.90
4725;DHT22;2376;53.544;10.226;2022-09-13T15:06:20;20.90;99.90
4725;DHT22;2376;53.544;10.226;2022-09-13T15:08:47;21.10;99.90
4725;DHT22;2376;53.544;10.226;2022-09-13T15:11:25;21.00;99.90
4725;DHT22;2376;53.544;10.226;2022-09-13T15:14:00;20.90;99.90
4725;DHT22;2376;53.544;10.226;2022-09-13T15:16:29;21.00;99.90
4725;DHT22;2376;53.544;10.226;2022-09-13T15:19:19;20.90;99.90
4725;DHT22;2376;53.544;10.226;2022-09-13T15:22:00;21.00;99.90
4725;DHT22;2376;53.544;10.226;2022-09-13T15:24:31;20.90;99.90
4725;DHT22;2376;53.544;10.226;2022-09-13T15:27:03;20.90;99.90
4725;DHT22;2376;53.544;10.226;2022-09-13T15:29:31;20.80;99.90
4725;DHT22;2376;53.544;10.226;2022-09-13T15:32:00;20.80;99.90
4725;DHT22;2376;53.544;10.226;2022-09-13T15:34:27;20.70;99.90
4725;DHT22;2376;53.544;10.226;2022-09-13T15:37:10;20.70;99.90
4725;DHT22;2376;53.544;10.226;2022-09-13T15:39:45;20.70;99.90
4725;DHT22;2376;53.544;10.226;2022-09-13T15:42:12;20.70;99.90
4725;DHT22;2376;53.544;10.226;2022-09-13T15:44:39;20.70;99.90
4725;DHT22;2376;53.544;10.226;2022-09-13T15:47:08;20.80;99.90
4725;DHT22;2376;53.544;10.226;2022-09-13T15:49:37;20.70;99.90
4725;DHT22;2376;53.544;10.226;2022-09-13T15:52:05;20.70;99.90
4725;DHT22;2376;53.544;10.226;2022-09-13T15:54:36;20.60;99.90
4725;DHT22;2376;53.544;10.226;2022-09-13T15:57:06;20.60;99.90
4725;DHT22;2376;53.544;10.226;2022-09-13T15:59:33;20.40;99.90
4725;DHT22;2376;53.544;10.226;2022-09-13T16:02:01;20.40;99.90
4725;DHT22;2376;53.544;10.226;2022-09-13T16:04:38;20.20;99.90
4725;DHT22;2376;53.544;10.226;2022-09-13T16:07:04;20.30;99.90
4725;DHT22;2376;53.544;10.226;2022-09-13T16:09:32;20.10;99.90
4725;DHT22;2376;53.544;10.226;2022-09-13T16:11:59;20.20;99.90
4725;DHT22;2376;53.544;10.226;2022-09-13T16:14:26;19.90;99.90
4725;DHT22;2376;53.544;10.226;2022-09-13T16:16:52;19.70;99.90
4725;DHT22;2376;53.544;10.226;2022-09-13T16:19:21;19.70;99.90
4725;DHT22;2376;53.544;10.226;2022-09-13T16:21:49;19.70;99.90
4725;DHT22;2376;53.544;10.226;2022-09-13T16:24:16;19.70;99.90
4725;DHT22;2376;53.544;10.226;2022-09-13T16:26:44;19.70;99.90
4725;DHT22;2376;53.544;10.226;2022-09-13T16:29:11;19.60;99.90
4725;DHT22;2376;53.544;10.226;2022-09-13T16:31:38;19.70;99.90